createdAt,value
2019-03-31T00:00:38.252Z,9.47
2019-03-31T00:03:27.101Z,8.90
2019-03-31T00:05:56.593Z,9.97
2019-03-31T00:08:26.081Z,10.00
2019-03-31T00:10:55.568Z,9.70
2019-03-31T00:13:25.062Z,9.50
2019-03-31T00:15:54.500Z,9.63
2019-03-31T00:18:23.956Z,9.00
2019-03-31T00:20:53.544Z,10.20
2019-03-31T00:23:22.987Z,9.20
2019-03-31T00:25:55.351Z,8.90
2019-03-31T00:28:24.853Z,8.17
2019-03-31T00:30:55.020Z,8.90
2019-03-31T00:33:24.640Z,8.50
2019-03-31T00:35:54.134Z,9.57
2019-03-31T00:38:23.673Z,8.97
2019-03-31T00:40:53.139Z,9.10
2019-03-31T00:43:22.644Z,8.40
2019-03-31T00:45:52.126Z,8.73
2019-03-31T00:48:21.618Z,8.43
2019-03-31T00:50:51.112Z,8.80
2019-03-31T00:53:20.585Z,8.43
2019-03-31T00:55:50.002Z,10.10
2019-03-31T00:58:24.487Z,8.17
2019-03-31T01:00:56.437Z,8.30
2019-03-31T01:03:26.211Z,8.97
2019-03-31T01:05:55.873Z,8.73
2019-03-31T01:08:26.218Z,8.70
2019-03-31T01:10:56.084Z,8.80
2019-03-31T01:13:25.575Z,8.57
2019-03-31T01:15:55.136Z,8.20
2019-03-31T01:18:24.849Z,9.00
2019-03-31T01:20:54.315Z,9.50
2019-03-31T01:23:23.785Z,8.50
2019-03-31T01:25:53.268Z,8.90
2019-03-31T01:28:22.727Z,7.90
2019-03-31T01:30:52.218Z,8.43
2019-03-31T01:33:21.742Z,8.20
2019-03-31T01:35:51.295Z,8.43
2019-03-31T01:38:20.770Z,8.63
2019-03-31T01:40:50.296Z,8.60
2019-03-31T01:43:19.764Z,8.30
2019-03-31T01:45:49.231Z,9.70
2019-03-31T01:48:18.670Z,8.60
2019-03-31T01:50:48.150Z,9.03
2019-03-31T01:53:17.628Z,8.07
2019-03-31T01:55:47.111Z,9.00
2019-03-31T01:58:16.585Z,7.97
2019-03-31T02:00:50.631Z,9.10
2019-03-31T02:03:20.216Z,8.93
2019-03-31T02:05:49.689Z,7.90
2019-03-31T02:08:19.119Z,7.00
2019-03-31T02:10:48.630Z,8.33
2019-03-31T02:13:18.082Z,8.67
2019-03-31T02:15:47.609Z,7.87
2019-03-31T02:18:17.179Z,8.43
2019-03-31T02:20:46.714Z,7.90
2019-03-31T02:23:16.222Z,8.07
2019-03-31T02:25:45.709Z,7.93
2019-03-31T02:28:15.176Z,8.50
2019-03-31T02:30:46.441Z,8.07
2019-03-31T02:33:15.894Z,9.07
2019-03-31T02:35:45.359Z,8.83
2019-03-31T02:38:14.856Z,8.30
2019-03-31T02:40:44.432Z,7.87
2019-03-31T02:43:13.896Z,8.10
2019-03-31T02:45:43.376Z,8.10
2019-03-31T02:48:14.713Z,7.80
2019-03-31T02:50:47.344Z,8.93
2019-03-31T02:53:17.632Z,8.10
2019-03-31T02:55:47.095Z,8.20
2019-03-31T02:58:16.700Z,8.50
2019-03-31T03:00:46.572Z,8.30
2019-03-31T03:03:19.336Z,7.63
2019-03-31T03:05:48.837Z,8.43
2019-03-31T03:08:19.358Z,8.40
2019-03-31T03:10:51.449Z,7.97
2019-03-31T03:13:22.759Z,7.90
2019-03-31T03:16:11.505Z,8.70
2019-03-31T03:18:41.006Z,8.57
2019-03-31T03:21:10.478Z,8.83
2019-03-31T03:23:39.945Z,9.17
2019-03-31T03:26:09.464Z,9.17
2019-03-31T03:28:38.938Z,7.90
2019-03-31T03:31:15.289Z,9.70
2019-03-31T03:33:39.698Z,8.93
2019-03-31T03:36:09.158Z,8.17
2019-03-31T03:38:38.631Z,8.57
2019-03-31T03:41:08.126Z,8.67
2019-03-31T03:43:54.049Z,8.27
2019-03-31T03:46:08.781Z,7.53
2019-03-31T03:48:38.285Z,8.03
2019-03-31T03:51:07.749Z,8.00
2019-03-31T03:53:37.209Z,7.87
2019-03-31T03:56:06.831Z,7.63
2019-03-31T03:58:36.383Z,8.23
2019-03-31T04:01:07.405Z,8.67
2019-03-31T04:03:36.917Z,9.40
2019-03-31T04:06:06.386Z,9.00
2019-03-31T04:08:36.055Z,8.90
2019-03-31T04:11:21.843Z,9.67
2019-03-31T04:13:51.546Z,7.90
2019-03-31T04:16:21.020Z,7.60
2019-03-31T04:18:50.588Z,8.70
2019-03-31T04:21:20.097Z,8.27
2019-03-31T04:23:49.734Z,7.73
2019-03-31T04:26:19.233Z,9.70
2019-03-31T04:28:48.781Z,8.43
2019-03-31T04:31:18.290Z,8.70
2019-03-31T04:33:52.275Z,8.50
2019-03-31T04:36:18.999Z,8.73
2019-03-31T04:38:48.564Z,7.67
2019-03-31T04:41:18.132Z,9.47
2019-03-31T04:43:47.571Z,8.63
2019-03-31T04:46:17.080Z,8.17
2019-03-31T04:48:46.560Z,8.90
2019-03-31T04:51:16.021Z,9.57
2019-03-31T04:53:45.549Z,10.57
2019-03-31T04:56:15.009Z,9.00
2019-03-31T04:58:44.508Z,10.67
2019-03-31T05:01:13.964Z,9.80
2019-03-31T05:03:43.665Z,10.60
2019-03-31T05:06:13.270Z,10.57
2019-03-31T05:08:42.735Z,11.23
2019-03-31T05:11:12.196Z,11.33
2019-03-31T05:13:41.660Z,9.67
2019-03-31T05:16:11.130Z,9.60
2019-03-31T05:18:40.757Z,10.93
2019-03-31T05:21:10.346Z,11.50
2019-03-31T05:23:39.814Z,11.50
2019-03-31T05:26:09.481Z,10.90
2019-03-31T05:28:38.965Z,11.33
2019-03-31T05:31:08.403Z,9.80
2019-03-31T05:33:37.867Z,9.90
2019-03-31T05:36:07.437Z,10.50
2019-03-31T05:38:37.009Z,10.57
2019-03-31T05:41:06.441Z,9.67
2019-03-31T05:43:35.952Z,9.77
2019-03-31T05:46:05.451Z,10.90
2019-03-31T05:48:34.928Z,10.07
2019-03-31T05:51:04.408Z,11.47
2019-03-31T05:53:33.864Z,9.63
2019-03-31T05:56:03.379Z,11.37
2019-03-31T05:58:32.850Z,9.90
2019-03-31T06:01:02.425Z,9.00
2019-03-31T06:03:31.887Z,8.37
2019-03-31T06:06:01.373Z,8.27
2019-03-31T06:08:30.839Z,8.07
2019-03-31T06:11:00.299Z,8.80
2019-03-31T06:13:29.796Z,8.13
2019-03-31T06:15:59.288Z,7.40
2019-03-31T06:18:28.753Z,7.33
2019-03-31T06:20:58.285Z,7.30
2019-03-31T06:23:27.825Z,9.60
2019-03-31T06:25:57.241Z,7.43
2019-03-31T06:28:26.700Z,7.53
2019-03-31T06:30:56.163Z,7.60
2019-03-31T06:33:25.648Z,8.00
2019-03-31T06:35:55.203Z,7.20
2019-03-31T06:38:24.728Z,7.53
2019-03-31T06:40:58.495Z,7.10
2019-03-31T06:43:27.987Z,7.40
2019-03-31T06:45:57.460Z,7.80
2019-03-31T06:48:26.928Z,7.70
2019-03-31T06:50:56.435Z,7.80
2019-03-31T06:53:25.821Z,7.20
2019-03-31T06:55:55.282Z,6.90
2019-03-31T06:58:24.787Z,7.57
2019-03-31T07:00:54.290Z,7.47
2019-03-31T07:03:23.739Z,7.17
2019-03-31T07:05:53.229Z,8.30
2019-03-31T07:08:22.760Z,6.73
2019-03-31T07:10:52.421Z,7.27
2019-03-31T07:13:21.916Z,7.13
2019-03-31T07:15:51.390Z,7.83
2019-03-31T07:18:20.875Z,7.50
2019-03-31T07:20:50.790Z,7.43
2019-03-31T07:23:20.293Z,6.90
2019-03-31T07:25:49.813Z,7.13
2019-03-31T07:28:19.308Z,7.03
2019-03-31T07:30:48.800Z,7.87
2019-03-31T07:33:18.270Z,7.40
2019-03-31T07:35:47.869Z,7.00
2019-03-31T07:38:17.583Z,8.03
2019-03-31T07:40:47.257Z,7.57
2019-03-31T07:43:17.008Z,7.73
2019-03-31T07:45:46.744Z,7.30
2019-03-31T07:48:28.772Z,8.10
2019-03-31T07:50:59.803Z,7.37
2019-03-31T07:53:29.291Z,8.60
2019-03-31T07:55:58.902Z,7.77
2019-03-31T07:58:28.377Z,8.03
2019-03-31T08:00:58.000Z,7.83
2019-03-31T08:03:27.505Z,8.70
2019-03-31T08:05:56.985Z,9.00
2019-03-31T08:08:26.454Z,9.60
2019-03-31T08:10:55.951Z,9.23
2019-03-31T08:13:25.502Z,9.27
2019-03-31T08:15:54.979Z,10.40
2019-03-31T08:18:24.474Z,8.90
2019-03-31T08:20:54.128Z,10.87
2019-03-31T08:23:23.602Z,8.87
2019-03-31T08:25:53.090Z,9.30
2019-03-31T08:28:22.775Z,10.50
2019-03-31T08:30:52.247Z,9.50
2019-03-31T08:33:21.778Z,10.10
2019-03-31T08:35:51.261Z,8.93
2019-03-31T08:38:24.243Z,9.47
2019-03-31T08:40:51.959Z,9.97
2019-03-31T08:43:21.449Z,10.27
2019-03-31T08:45:50.922Z,10.33
2019-03-31T08:48:20.430Z,10.73
2019-03-31T08:50:49.904Z,10.90
2019-03-31T08:53:19.380Z,10.53
2019-03-31T08:55:48.885Z,11.23
2019-03-31T08:58:20.227Z,11.50
2019-03-31T09:00:51.286Z,11.47
2019-03-31T09:03:20.908Z,11.27
2019-03-31T09:06:01.140Z,11.73
2019-03-31T09:08:21.593Z,10.93
2019-03-31T09:10:51.097Z,12.30
2019-03-31T09:13:20.677Z,12.13
2019-03-31T09:15:50.147Z,12.67
2019-03-31T09:18:19.655Z,11.80
2019-03-31T09:20:49.144Z,13.20
2019-03-31T09:23:18.624Z,12.27
2019-03-31T09:25:48.145Z,12.87
2019-03-31T09:28:17.613Z,11.87
2019-03-31T09:30:47.119Z,12.33
2019-03-31T09:33:16.653Z,13.67
2019-03-31T09:35:46.193Z,13.60
2019-03-31T09:38:15.758Z,12.60
2019-03-31T09:40:45.252Z,12.97
2019-03-31T09:43:14.844Z,13.13
2019-03-31T09:45:44.381Z,11.73
2019-03-31T09:48:13.968Z,11.70
2019-03-31T09:50:43.453Z,12.80
2019-03-31T09:53:12.923Z,11.90
2019-03-31T09:55:42.437Z,11.40
2019-03-31T09:58:11.917Z,12.70
2019-03-31T10:00:48.974Z,13.00
2019-03-31T10:03:18.486Z,11.57
2019-03-31T10:05:48.440Z,12.40
2019-03-31T10:08:21.527Z,12.30
2019-03-31T10:10:49.342Z,11.40
2019-03-31T10:13:18.920Z,12.90
2019-03-31T10:15:48.546Z,13.43
2019-03-31T10:18:18.424Z,13.20
2019-03-31T10:20:48.214Z,11.37
2019-03-31T10:23:17.819Z,14.17
2019-03-31T10:25:47.292Z,11.73
2019-03-31T10:28:16.794Z,12.33
2019-03-31T10:30:46.292Z,11.57
2019-03-31T10:33:15.768Z,12.07
2019-03-31T10:35:45.331Z,10.60
2019-03-31T10:38:14.926Z,11.03
2019-03-31T10:40:44.427Z,12.17
2019-03-31T10:43:13.942Z,10.97
2019-03-31T10:45:43.414Z,11.33
2019-03-31T10:48:20.211Z,12.03
2019-03-31T10:50:44.223Z,10.77
2019-03-31T10:53:13.708Z,11.70
2019-03-31T10:55:43.266Z,13.13
2019-03-31T10:58:12.810Z,11.10
2019-03-31T11:00:44.443Z,9.70
2019-03-31T11:03:13.583Z,10.93
2019-03-31T11:05:43.078Z,12.10
2019-03-31T11:08:12.576Z,11.60
2019-03-31T11:10:42.171Z,11.83
2019-03-31T11:13:11.639Z,11.00
2019-03-31T11:15:41.145Z,11.07
2019-03-31T11:18:10.671Z,11.40
2019-03-31T11:20:40.145Z,10.63
2019-03-31T11:23:11.230Z,10.70
2019-03-31T11:25:40.750Z,10.90
2019-03-31T11:28:10.283Z,11.07
2019-03-31T11:30:39.797Z,10.23
2019-03-31T11:33:09.485Z,10.00
2019-03-31T11:35:39.318Z,12.40
2019-03-31T11:38:08.792Z,11.37
2019-03-31T11:40:38.303Z,11.83
2019-03-31T11:43:07.976Z,11.70
2019-03-31T11:45:37.489Z,10.43
2019-03-31T11:48:06.990Z,11.30
2019-03-31T11:50:36.462Z,11.20
2019-03-31T11:53:05.944Z,10.33
2019-03-31T11:55:35.465Z,11.00
2019-03-31T11:58:04.966Z,11.13
2019-03-31T12:00:36.019Z,10.37
2019-03-31T12:03:05.517Z,10.77
2019-03-31T12:05:35.099Z,12.07
2019-03-31T12:08:04.606Z,11.03
2019-03-31T12:10:34.201Z,10.00
2019-03-31T12:13:03.826Z,10.67
2019-03-31T12:15:33.320Z,10.73
2019-03-31T12:18:02.821Z,11.20
2019-03-31T12:20:32.407Z,11.80
2019-03-31T12:23:01.869Z,11.67
2019-03-31T12:25:31.515Z,11.10
2019-03-31T12:28:01.025Z,11.60
2019-03-31T12:30:30.495Z,11.17
2019-03-31T12:33:00.028Z,10.80
2019-03-31T12:35:29.500Z,12.73
2019-03-31T12:37:59.027Z,10.70
2019-03-31T12:40:36.788Z,11.33
2019-03-31T12:43:06.278Z,23.80
2019-03-31T12:45:35.786Z,21.10
2019-03-31T12:48:05.291Z,11.03
2019-03-31T12:50:34.762Z,9.80
2019-03-31T12:53:04.232Z,9.40
2019-03-31T12:55:33.788Z,10.03
2019-03-31T12:58:03.278Z,9.80
2019-03-31T13:00:32.778Z,9.60
2019-03-31T13:03:02.291Z,9.17
2019-03-31T13:05:31.761Z,9.60
2019-03-31T13:08:01.287Z,10.23
2019-03-31T13:10:30.813Z,10.20
2019-03-31T13:13:00.297Z,9.40
2019-03-31T13:15:29.766Z,8.27
2019-03-31T13:17:59.256Z,9.13
2019-03-31T13:20:28.754Z,9.93
2019-03-31T13:22:58.245Z,9.37
2019-03-31T13:25:27.961Z,9.13
2019-03-31T13:27:57.487Z,9.47
2019-03-31T13:30:27.009Z,9.80
2019-03-31T13:32:56.501Z,8.40
2019-03-31T13:35:26.280Z,10.10
2019-03-31T13:38:10.027Z,8.57
2019-03-31T13:40:27.062Z,9.20
2019-03-31T13:42:57.604Z,8.30
2019-03-31T13:45:28.392Z,9.27
2019-03-31T13:47:58.988Z,10.60
2019-03-31T13:50:28.516Z,10.07
2019-03-31T13:52:57.990Z,8.47
2019-03-31T13:55:27.755Z,8.80
2019-03-31T13:57:58.087Z,9.70
2019-03-31T14:00:41.829Z,9.10
2019-03-31T14:03:11.313Z,8.30
2019-03-31T14:06:00.229Z,9.40
2019-03-31T14:08:29.718Z,8.70
2019-03-31T14:10:59.238Z,8.37
2019-03-31T14:13:28.712Z,8.63
2019-03-31T14:15:58.300Z,7.87
2019-03-31T14:18:27.795Z,8.23
2019-03-31T14:20:57.281Z,7.87
2019-03-31T14:23:26.742Z,7.53
2019-03-31T14:25:56.253Z,7.50
2019-03-31T14:28:25.743Z,7.50
2019-03-31T14:30:55.405Z,9.07
2019-03-31T14:33:24.903Z,7.90
2019-03-31T14:35:54.375Z,8.93
2019-03-31T14:38:23.983Z,7.80
2019-03-31T14:40:53.576Z,8.60
2019-03-31T14:43:23.066Z,8.23
2019-03-31T14:45:52.549Z,7.80
2019-03-31T14:48:22.042Z,7.50
2019-03-31T14:50:51.513Z,8.37
2019-03-31T14:53:20.999Z,8.37
2019-03-31T14:55:50.512Z,7.77
2019-03-31T14:58:19.998Z,8.13
2019-03-31T15:00:49.479Z,8.90
2019-03-31T15:03:19.072Z,8.13
2019-03-31T15:05:48.630Z,7.87
2019-03-31T15:08:18.185Z,7.63
2019-03-31T15:10:47.799Z,8.37
2019-03-31T15:13:17.269Z,8.70
2019-03-31T15:15:46.733Z,7.73
2019-03-31T15:18:16.305Z,8.87
2019-03-31T15:20:45.809Z,8.07
2019-03-31T15:23:15.278Z,8.10
2019-03-31T15:25:44.789Z,7.70
2019-03-31T15:28:14.286Z,8.30
2019-03-31T15:30:43.771Z,8.23
2019-03-31T15:33:13.266Z,7.53
2019-03-31T15:35:43.237Z,8.37
2019-03-31T15:38:12.720Z,9.37
2019-03-31T15:40:42.227Z,8.20
2019-03-31T15:43:11.719Z,8.57
2019-03-31T15:45:41.279Z,8.03
2019-03-31T15:48:10.777Z,7.57
2019-03-31T15:50:40.259Z,7.87
2019-03-31T15:53:09.723Z,7.70
2019-03-31T15:55:39.236Z,9.93
2019-03-31T15:58:08.723Z,13.70
2019-03-31T16:00:38.208Z,25.63
2019-03-31T16:03:07.702Z,8.93
2019-03-31T16:05:37.201Z,8.57
2019-03-31T16:08:06.667Z,9.87
2019-03-31T16:10:36.175Z,8.73
2019-03-31T16:13:05.708Z,8.10
2019-03-31T16:15:35.196Z,8.70
2019-03-31T16:18:04.686Z,9.30
2019-03-31T16:20:34.238Z,7.40
2019-03-31T16:23:03.731Z,7.73
2019-03-31T16:25:34.825Z,7.00
2019-03-31T16:28:04.287Z,7.93
2019-03-31T16:30:35.270Z,7.20
2019-03-31T16:33:07.019Z,7.00
2019-03-31T16:35:35.988Z,8.30
2019-03-31T16:38:05.480Z,7.93
2019-03-31T16:40:34.973Z,8.10
2019-03-31T16:43:04.628Z,7.60
2019-03-31T16:45:34.145Z,8.50
2019-03-31T16:48:03.650Z,7.90
2019-03-31T16:50:33.123Z,8.30
2019-03-31T16:53:02.621Z,9.30
2019-03-31T16:55:32.119Z,8.93
2019-03-31T16:58:01.593Z,7.93
2019-03-31T17:00:31.074Z,9.33
2019-03-31T17:03:00.606Z,8.90
2019-03-31T17:05:30.106Z,8.97
2019-03-31T17:07:59.563Z,8.80
2019-03-31T17:10:29.105Z,7.70
2019-03-31T17:12:58.600Z,7.80
2019-03-31T17:15:28.134Z,8.70
2019-03-31T17:17:57.643Z,8.67
2019-03-31T17:20:27.120Z,8.03
2019-03-31T17:22:56.675Z,8.67
2019-03-31T17:25:26.200Z,8.90
2019-03-31T17:27:55.708Z,12.13
2019-03-31T17:30:25.194Z,9.73
2019-03-31T17:32:54.718Z,9.10
2019-03-31T17:35:24.207Z,8.87
2019-03-31T17:37:53.686Z,8.73
2019-03-31T17:40:23.188Z,8.43
2019-03-31T17:42:52.673Z,7.77
2019-03-31T17:45:22.337Z,8.40
2019-03-31T17:47:51.863Z,9.50
2019-03-31T17:50:21.367Z,9.93
2019-03-31T17:52:50.994Z,11.80
2019-03-31T17:55:20.566Z,12.10
2019-03-31T17:57:49.962Z,9.87
2019-03-31T18:00:19.450Z,11.13
2019-03-31T18:02:49.019Z,8.10
2019-03-31T18:05:18.528Z,8.90
2019-03-31T18:07:48.011Z,9.43
2019-03-31T18:10:21.177Z,8.37
2019-03-31T18:12:48.690Z,9.00
2019-03-31T18:15:18.193Z,8.80
2019-03-31T18:17:47.687Z,9.27
2019-03-31T18:20:17.192Z,10.50
2019-03-31T18:22:46.666Z,9.00
2019-03-31T18:25:16.211Z,9.37
2019-03-31T18:27:45.709Z,9.63
2019-03-31T18:30:16.200Z,10.33
2019-03-31T18:32:45.703Z,10.10
2019-03-31T18:35:16.955Z,9.07
2019-03-31T18:37:46.389Z,11.30
2019-03-31T18:40:15.909Z,12.10
2019-03-31T18:42:45.614Z,10.37
2019-03-31T18:45:15.481Z,9.40
2019-03-31T18:47:45.455Z,10.77
2019-03-31T18:50:15.385Z,12.40
2019-03-31T18:52:45.103Z,9.30
2019-03-31T18:55:25.393Z,12.10
2019-03-31T18:57:56.437Z,12.57
2019-03-31T19:00:27.582Z,17.60
2019-03-31T19:03:05.200Z,11.87
2019-03-31T19:05:48.066Z,13.17
2019-03-31T19:08:34.696Z,11.70
2019-03-31T19:11:09.198Z,10.73
2019-03-31T19:13:54.524Z,12.37
2019-03-31T19:16:13.113Z,13.10
2019-03-31T19:18:55.949Z,13.83
2019-03-31T19:21:32.533Z,10.93
2019-03-31T19:24:05.817Z,10.77
2019-03-31T19:26:48.353Z,11.33
2019-03-31T19:29:24.140Z,10.50
2019-03-31T19:32:01.577Z,11.17
2019-03-31T19:34:32.660Z,10.03
2019-03-31T19:37:06.677Z,9.63
2019-03-31T19:39:54.081Z,10.20
2019-03-31T19:42:33.918Z,11.30
2019-03-31T19:45:21.961Z,10.40
2019-03-31T19:47:53.022Z,11.60
2019-03-31T19:50:24.075Z,10.30
2019-03-31T19:53:11.675Z,10.43
2019-03-31T19:56:07.462Z,11.80
2019-03-31T19:58:47.520Z,10.83
2019-03-31T20:01:37.647Z,11.70
2019-03-31T20:04:08.731Z,12.07
2019-03-31T20:06:45.496Z,19.93
2019-03-31T20:09:16.592Z,14.10
2019-03-31T20:11:50.847Z,17.90
2019-03-31T20:14:21.946Z,13.43
2019-03-31T20:16:55.795Z,12.37
2019-03-31T20:19:36.006Z,10.77
2019-03-31T20:22:07.082Z,12.87
2019-03-31T20:24:50.140Z,11.83
2019-03-31T20:27:23.903Z,11.60
2019-03-31T20:30:11.368Z,11.27
2019-03-31T20:32:51.342Z,11.40
2019-03-31T20:35:25.186Z,12.53
2019-03-31T20:37:56.267Z,11.90
2019-03-31T20:40:27.533Z,12.50
2019-03-31T20:43:07.865Z,11.03
2019-03-31T20:45:37.369Z,12.20
2019-03-31T20:48:06.876Z,10.93
2019-03-31T20:50:36.399Z,12.80
2019-03-31T20:53:05.988Z,12.80
2019-03-31T20:55:35.460Z,12.73
2019-03-31T20:58:05.002Z,13.53
2019-03-31T21:00:34.508Z,12.20
2019-03-31T21:03:04.042Z,14.00
2019-03-31T21:05:33.548Z,13.53
2019-03-31T21:08:03.154Z,14.27
2019-03-31T21:10:32.664Z,12.30
2019-03-31T21:13:02.225Z,12.37
2019-03-31T21:15:31.716Z,11.47
2019-03-31T21:18:01.214Z,12.50
2019-03-31T21:20:30.719Z,13.43
2019-03-31T21:23:00.190Z,12.00
2019-03-31T21:25:29.682Z,12.27
2019-03-31T21:27:59.191Z,14.23
2019-03-31T21:30:28.673Z,13.40
2019-03-31T21:32:58.141Z,12.20
2019-03-31T21:35:27.647Z,11.20
2019-03-31T21:37:57.133Z,10.90
2019-03-31T21:40:26.611Z,10.30
2019-03-31T21:42:56.123Z,12.23
2019-03-31T21:45:25.601Z,11.10
2019-03-31T21:47:55.119Z,12.17
2019-03-31T21:50:24.617Z,12.23
2019-03-31T21:52:54.117Z,11.57
2019-03-31T21:55:23.642Z,12.43
2019-03-31T21:57:53.111Z,11.63
2019-03-31T22:00:24.165Z,11.70
2019-03-31T22:02:53.682Z,12.03
2019-03-31T22:05:23.158Z,12.47
2019-03-31T22:07:52.648Z,11.20
2019-03-31T22:10:22.094Z,13.13
2019-03-31T22:12:51.576Z,13.27
2019-03-31T22:15:21.054Z,12.43
2019-03-31T22:17:50.562Z,12.80
2019-03-31T22:20:19.975Z,11.83
2019-03-31T22:22:49.548Z,12.70
2019-03-31T22:25:19.046Z,11.60
2019-03-31T22:27:48.531Z,12.03
2019-03-31T22:30:18.015Z,12.60
2019-03-31T22:32:47.485Z,11.50
2019-03-31T22:35:16.958Z,11.30
2019-03-31T22:37:46.435Z,11.63
2019-03-31T22:40:15.937Z,11.33
2019-03-31T22:42:45.431Z,12.13
2019-03-31T22:45:14.904Z,11.80
2019-03-31T22:47:44.413Z,11.90
2019-03-31T22:50:13.881Z,11.40
2019-03-31T22:52:43.475Z,11.03
2019-03-31T22:55:13.063Z,10.90
2019-03-31T22:57:42.551Z,10.03
2019-03-31T23:00:14.017Z,10.40
2019-03-31T23:02:43.441Z,11.20
2019-03-31T23:05:12.932Z,10.77
2019-03-31T23:07:42.412Z,11.40
2019-03-31T23:10:11.938Z,9.73
2019-03-31T23:12:41.447Z,10.23
2019-03-31T23:15:11.060Z,10.47
2019-03-31T23:17:40.522Z,9.63
2019-03-31T23:20:10.003Z,10.23
2019-03-31T23:22:39.466Z,9.90
2019-03-31T23:25:08.947Z,10.93
2019-03-31T23:27:38.430Z,10.70
2019-03-31T23:30:09.844Z,10.03
2019-03-31T23:32:39.331Z,10.30
2019-03-31T23:35:08.732Z,10.03
2019-03-31T23:37:38.258Z,10.00
2019-03-31T23:40:07.735Z,9.67
2019-03-31T23:42:37.214Z,9.80
2019-03-31T23:45:07.927Z,9.20
2019-03-31T23:47:37.332Z,9.40
2019-03-31T23:50:07.005Z,9.43
2019-03-31T23:52:36.514Z,9.63
2019-03-31T23:55:06.476Z,10.27
2019-03-31T23:57:42.694Z,9.97
